Time;durP1;ratioP1;P1;durP2;ratioP2;P2;SDS_P1;SDS_P2;PMS_P1;PMS_P2;Temp;Humidity;BMP_temperature;BMP_pressure;BME280_temperature;BME280_humidity;BME280_pressure;Samples;Min_cycle;Max_cycle;Signal;HPM_P1;HPM_P2
2023/09/13 00:02:14;0.00;0.00;0.62;0.00;0.00;0.62;4.20;3.67;;;31.70;33.30;;;;;;2264172;61;20403;-60
2023/09/13 00:04:59;0.00;0.00;0.62;0.00;0.00;0.62;3.40;3.10;;;31.70;33.30;;;;;;2263894;61;20453;-59
2023/09/13 00:07:44;0.00;0.00;0.62;0.00;0.00;0.62;3.50;3.20;;;31.70;33.30;;;;;;2264153;61;20384;-59
2023/09/13 00:10:30;0.00;0.00;0.62;0.00;0.00;0.62;5.87;3.50;;;31.70;33.30;;;;;;2264193;61;20387;-61
2023/09/13 00:13:14;0.00;0.00;0.62;0.00;0.00;0.62;3.63;3.30;;;31.70;33.30;;;;;;2263791;61;20417;-57
2023/09/13 00:15:59;0.00;0.00;0.62;0.00;0.00;0.62;4.07;3.60;;;31.70;33.30;;;;;;2263717;61;20452;-61
2023/09/13 00:18:44;0.00;0.00;0.62;0.00;0.00;0.62;3.97;3.57;;;31.70;33.30;;;;;;2264076;61;20423;-59
2023/09/13 00:21:29;0.00;0.00;0.62;0.00;0.00;0.62;3.90;3.50;;;31.70;33.30;;;;;;2264048;61;20465;-60
2023/09/13 00:24:14;0.00;0.00;0.62;0.00;0.00;0.62;4.40;3.50;;;31.70;33.30;;;;;;2263991;61;20919;-60
2023/09/13 00:27:00;0.00;0.00;0.62;0.00;0.00;0.62;5.37;4.00;;;31.70;33.30;;;;;;2264038;61;20387;-60
2023/09/13 00:29:44;0.00;0.00;0.62;0.00;0.00;0.62;3.97;3.57;;;31.70;33.30;;;;;;2264212;61;20441;-60
2023/09/13 00:32:29;0.00;0.00;0.62;0.00;0.00;0.62;3.37;2.83;;;31.70;33.30;;;;;;2264269;61;20368;-65
2023/09/13 00:35:14;0.00;0.00;0.62;0.00;0.00;0.62;3.63;3.33;;;31.70;33.30;;;;;;2263405;61;20963;-56
2023/09/13 00:37:58;0.00;0.00;0.62;0.00;0.00;0.62;3.77;3.37;;;31.70;33.30;;;;;;2264552;61;20395;-60
2023/09/13 00:40:43;0.00;0.00;0.62;0.00;0.00;0.62;3.30;3.00;;;31.70;33.30;;;;;;2264929;61;20363;-57
2023/09/13 00:43:29;0.00;0.00;0.62;0.00;0.00;0.62;3.90;3.50;;;31.70;33.30;;;;;;2264271;61;20442;-59
2023/09/13 00:46:14;0.00;0.00;0.62;0.00;0.00;0.62;3.30;3.00;;;31.70;33.30;;;;;;2264929;61;20908;-60
2023/09/13 00:48:58;0.00;0.00;0.62;0.00;0.00;0.62;3.50;3.00;;;31.70;33.30;;;;;;2264595;61;20450;-60
2023/09/13 00:51:43;0.00;0.00;0.62;0.00;0.00;0.62;3.40;3.10;;;31.60;33.30;;;;;;2264801;61;20368;-58
2023/09/13 00:54:28;0.00;0.00;0.62;0.00;0.00;0.62;3.57;3.27;;;31.70;33.30;;;;;;2264436;61;21095;-60
2023/09/13 00:57:13;0.00;0.00;0.62;0.00;0.00;0.62;3.40;3.10;;;31.60;33.30;;;;;;2264065;61;20384;-61
2023/09/13 01:00:00;0.00;0.00;0.62;0.00;0.00;0.62;3.10;2.80;;;31.60;33.30;;;;;;2265104;61;21124;-61
2023/09/13 01:02:45;0.00;0.00;0.62;0.00;0.00;0.62;3.30;3.00;;;31.60;33.20;;;;;;2264333;61;20403;-59
2023/09/13 01:05:30;0.00;0.00;0.62;0.00;0.00;0.62;3.97;3.50;;;31.60;33.30;;;;;;2264460;61;20376;-60
2023/09/13 01:08:15;0.00;0.00;0.62;0.00;0.00;0.62;3.03;2.63;;;31.60;33.20;;;;;;2264486;61;20986;-60
2023/09/13 01:11:00;0.00;0.00;0.62;0.00;0.00;0.62;3.00;2.57;;;31.60;33.30;;;;;;2264790;61;20368;-58
2023/09/13 01:13:44;0.00;0.00;0.62;0.00;0.00;0.62;3.40;3.00;;;31.60;33.30;;;;;;2264055;61;20399;-58
2023/09/13 01:16:42;0.00;0.00;0.62;0.00;0.00;0.62;3.70;3.40;;;31.60;33.30;;;;;;2264766;61;20895;-60
2023/09/13 01:19:51;0.00;0.00;0.62;0.00;0.00;0.62;3.57;3.13;;;31.60;33.30;;;;;;2264579;61;20417;-59
2023/09/13 01:23:10;0.00;0.00;0.62;0.00;0.00;0.62;3.60;3.20;;;31.60;33.30;;;;;;2265042;61;20411;-60
2023/09/13 01:26:42;0.00;0.00;0.62;0.00;0.00;0.62;3.00;2.70;;;31.60;33.30;;;;;;2260236;61;20427;-60
2023/09/13 01:29:31;0.00;0.00;0.62;0.00;0.00;0.62;3.50;2.80;;;31.60;33.30;;;;;;2683673;45;20384;-65
2023/09/13 01:32:15;0.00;0.00;0.62;0.00;0.00;0.62;3.03;2.73;;;31.60;33.30;;;;;;2259610;61;20372;-60
2023/09/13 01:35:02;0.00;0.00;0.62;0.00;0.00;0.62;3.00;2.73;;;31.60;33.30;;;;;;2263506;61;20438;-65
2023/09/13 01:37:47;0.00;0.00;0.62;0.00;0.00;0.62;3.00;2.70;;;31.60;33.30;;;;;;2262774;61;20476;-60
2023/09/13 01:40:37;0.00;0.00;0.62;0.00;0.00;0.62;3.43;3.10;;;31.60;33.30;;;;;;2260598;61;20905;-60
2023/09/13 01:43:23;0.00;0.00;0.62;0.00;0.00;0.62;3.50;3.17;;;31.60;33.30;;;;;;2260414;61;20423;-58
2023/09/13 01:46:12;0.00;0.00;0.62;0.00;0.00;0.62;2.83;2.43;;;31.50;33.20;;;;;;2262686;61;20405;-57
2023/09/13 01:48:59;0.00;0.00;0.62;0.00;0.00;0.62;2.93;2.70;;;31.60;33.30;;;;;;2259785;61;20420;-60
2023/09/13 01:51:44;0.00;0.00;0.62;0.00;0.00;0.62;2.70;2.50;;;31.50;33.20;;;;;;2257418;61;20445;-60
2023/09/13 01:54:32;0.00;0.00;0.62;0.00;0.00;0.62;3.10;2.60;;;31.50;33.20;;;;;;2259777;61;20800;-61
2023/09/13 01:57:17;0.00;0.00;0.62;0.00;0.00;0.62;3.47;2.40;;;31.50;33.40;;;;;;2260423;61;20389;-61
2023/09/13 02:00:04;0.00;0.00;0.62;0.00;0.00;0.62;2.47;2.27;;;31.50;33.20;;;;;;2260466;61;20439;-58
2023/09/13 02:02:57;0.00;0.00;0.62;0.00;0.00;0.62;2.60;2.13;;;31.50;33.20;;;;;;2260358;61;20421;-56
2023/09/13 02:05:42;0.00;0.00;0.62;0.00;0.00;0.62;4.27;2.47;;;31.50;33.20;;;;;;2259768;61;20442;-58
2023/09/13 02:08:27;0.00;0.00;0.62;0.00;0.00;0.62;4.10;3.30;;;31.50;33.20;;;;;;2260544;61;20416;-59
2023/09/13 02:11:12;0.00;0.00;0.62;0.00;0.00;0.62;3.53;2.97;;;31.50;33.20;;;;;;2260375;61;20635;-66
2023/09/13 02:13:57;0.00;0.00;0.62;0.00;0.00;0.62;2.80;2.50;;;31.50;33.20;;;;;;2260321;61;20396;-58
2023/09/13 02:16:41;0.00;0.00;0.62;0.00;0.00;0.62;3.27;2.30;;;31.50;33.20;;;;;;2260514;61;20427;-58
2023/09/13 02:19:28;0.00;0.00;0.62;0.00;0.00;0.62;2.70;2.50;;;31.50;33.20;;;;;;2259976;61;20370;-60
2023/09/13 02:22:13;0.00;0.00;0.62;0.00;0.00;0.62;3.17;2.67;;;31.50;33.20;;;;;;2260408;61;20819;-58
2023/09/13 02:24:58;0.00;0.00;0.62;0.00;0.00;0.62;2.70;2.30;;;31.50;33.20;;;;;;2259994;61;20440;-59
2023/09/13 02:27:43;0.00;0.00;0.62;0.00;0.00;0.62;2.80;2.47;;;31.50;33.20;;;;;;2260016;61;20423;-58
2023/09/13 02:30:28;0.00;0.00;0.62;0.00;0.00;0.62;3.17;2.40;;;31.50;33.20;;;;;;2260397;61;20439;-60
2023/09/13 02:33:13;0.00;0.00;0.62;0.00;0.00;0.62;3.00;2.73;;;31.50;33.20;;;;;;2259992;61;20801;-59
2023/09/13 02:35:59;0.00;0.00;0.62;0.00;0.00;0.62;3.20;2.90;;;31.50;33.20;;;;;;2260612;61;20491;-60
2023/09/13 02:38:43;0.00;0.00;0.62;0.00;0.00;0.62;3.17;2.87;;;31.50;33.20;;;;;;2260331;61;20401;-59
2023/09/13 02:41:27;0.00;0.00;0.62;0.00;0.00;0.62;3.10;2.80;;;31.50;33.20;;;;;;2259956;61;20400;-59
2023/09/13 02:44:12;0.00;0.00;0.62;0.00;0.00;0.62;2.73;2.53;;;31.50;33.20;;;;;;2260290;61;20381;-60
2023/09/13 02:46:57;0.00;0.00;0.62;0.00;0.00;0.62;2.70;2.40;;;31.50;33.70;;;;;;2260513;61;20492;-60
2023/09/13 02:49:42;0.00;0.00;0.62;0.00;0.00;0.62;3.20;2.40;;;31.50;33.20;;;;;;2259847;61;20847;-57
2023/09/13 02:52:31;0.00;0.00;0.62;0.00;0.00;0.62;2.53;2.30;;;31.50;33.90;;;;;;2260144;61;20380;-58
2023/09/13 02:55:15;0.00;0.00;0.62;0.00;0.00;0.62;3.20;2.40;;;31.50;33.20;;;;;;2259482;61;20423;-60
2023/09/13 02:58:00;0.00;0.00;0.62;0.00;0.00;0.62;3.30;3.00;;;31.50;33.20;;;;;;2260374;61;20423;-57
2023/09/13 03:00:45;0.00;0.00;0.62;0.00;0.00;0.62;3.30;3.00;;;31.50;33.20;;;;;;2260139;61;20407;-57
2023/09/13 03:03:31;0.00;0.00;0.62;0.00;0.00;0.62;3.00;2.67;;;31.40;33.20;;;;;;2259773;61;20904;-60
2023/09/13 03:06:16;0.00;0.00;0.62;0.00;0.00;0.62;2.90;2.50;;;31.40;33.20;;;;;;2260173;61;20365;-60
2023/09/13 03:09:03;0.00;0.00;0.62;0.00;0.00;0.62;3.03;2.47;;;31.40;33.20;;;;;;2260144;61;20443;-58
2023/09/13 03:11:48;0.00;0.00;0.62;0.00;0.00;0.62;3.37;2.47;;;31.40;33.20;;;;;;2259780;61;20388;-58
2023/09/13 03:14:34;0.00;0.00;0.62;0.00;0.00;0.62;2.57;2.33;;;31.40;33.20;;;;;;2262403;61;20407;-60
2023/09/13 03:17:18;0.00;0.00;0.62;0.00;0.00;0.62;3.00;2.70;;;31.40;33.20;;;;;;2260165;61;20930;-57
2023/09/13 03:20:05;0.00;0.00;0.62;0.00;0.00;0.62;3.20;2.93;;;31.40;33.20;;;;;;2260141;61;20365;-60
2023/09/13 03:22:53;0.00;0.00;0.62;0.00;0.00;0.62;2.90;2.60;;;31.40;33.20;;;;;;2262657;61;20802;-58
2023/09/13 03:25:40;0.00;0.00;0.62;0.00;0.00;0.62;2.90;2.40;;;31.40;33.20;;;;;;2259467;61;20401;-58
2023/09/13 03:28:24;0.00;0.00;0.62;0.00;0.00;0.62;2.80;2.40;;;31.40;33.20;;;;;;2259733;61;20951;-60
2023/09/13 03:31:10;0.00;0.00;0.62;0.00;0.00;0.62;3.33;2.83;;;31.40;33.20;;;;;;2260453;61;20411;-57
2023/09/13 03:33:56;0.00;0.00;0.62;0.00;0.00;0.62;3.33;2.50;;;31.40;33.20;;;;;;2259355;61;20888;-60
2023/09/13 03:36:43;0.00;0.00;0.62;0.00;0.00;0.62;2.87;2.60;;;31.40;33.20;;;;;;2259889;61;20431;-60
2023/09/13 03:39:28;0.00;0.00;0.62;0.00;0.00;0.62;3.03;2.70;;;31.40;33.20;;;;;;2259538;61;20362;-58
2023/09/13 03:42:14;0.00;0.00;0.62;0.00;0.00;0.62;2.73;2.53;;;31.40;33.20;;;;;;2259938;61;20365;-59
2023/09/13 03:44:59;0.00;0.00;0.62;0.00;0.00;0.62;2.80;2.50;;;31.40;33.10;;;;;;2259946;61;20369;-59
2023/09/13 03:47:44;0.00;0.00;0.62;0.00;0.00;0.62;2.57;2.37;;;31.40;33.20;;;;;;2259528;61;20843;-60
2023/09/13 03:50:28;0.00;0.00;0.62;0.00;0.00;0.62;2.63;2.40;;;31.30;33.10;;;;;;2259988;61;20433;-58
2023/09/13 03:53:13;0.00;0.00;0.62;0.00;0.00;0.62;3.60;3.30;;;31.30;33.10;;;;;;2260222;61;20372;-59
2023/09/13 03:55:58;0.00;0.00;0.62;0.00;0.00;0.62;3.13;2.20;;;31.30;33.10;;;;;;2259768;61;20364;-61
2023/09/13 03:58:44;0.00;0.00;0.62;0.00;0.00;0.62;2.70;2.40;;;31.30;33.10;;;;;;2259889;61;20836;-60
2023/09/13 04:01:29;0.00;0.00;0.62;0.00;0.00;0.62;3.23;2.90;;;31.30;33.10;;;;;;2259971;61;20373;-56
2023/09/13 04:04:14;0.00;0.00;0.62;0.00;0.00;0.62;2.50;2.30;;;31.30;33.10;;;;;;2259560;61;20368;-61
2023/09/13 04:06:58;0.00;0.00;0.62;0.00;0.00;0.62;3.50;3.17;;;31.30;33.10;;;;;;2259909;61;20921;-60
2023/09/13 04:09:43;0.00;0.00;0.62;0.00;0.00;0.62;3.43;3.13;;;31.30;33.00;;;;;;2260147;61;20435;-59
2023/09/13 04:12:28;0.00;0.00;0.62;0.00;0.00;0.62;2.43;2.13;;;31.30;33.10;;;;;;2260431;61;20411;-58
2023/09/13 04:15:14;0.00;0.00;0.62;0.00;0.00;0.62;3.87;2.87;;;31.30;33.10;;;;;;2260587;61;20403;-58
2023/09/13 04:17:59;0.00;0.00;0.62;0.00;0.00;0.62;3.00;2.60;;;31.30;33.10;;;;;;2260403;61;20389;-56
2023/09/13 04:20:48;0.00;0.00;0.62;0.00;0.00;0.62;3.20;2.90;;;31.30;33.10;;;;;;2260532;61;20365;-58
2023/09/13 04:23:33;0.00;0.00;0.62;0.00;0.00;0.62;3.40;2.53;;;31.30;33.10;;;;;;2260157;61;20992;-66
2023/09/13 04:26:21;0.00;0.00;0.62;0.00;0.00;0.62;2.73;2.47;;;31.30;33.10;;;;;;2260508;61;20419;-60
2023/09/13 04:29:06;0.00;0.00;0.62;0.00;0.00;0.62;2.93;2.63;;;31.30;33.10;;;;;;2260302;61;20797;-59
2023/09/13 04:31:52;0.00;0.00;0.62;0.00;0.00;0.62;2.93;2.63;;;31.30;33.10;;;;;;2260267;61;20391;-59
2023/09/13 04:34:37;0.00;0.00;0.62;0.00;0.00;0.62;3.20;2.73;;;31.30;33.10;;;;;;2260041;61;20372;-58
2023/09/13 04:37:25;0.00;0.00;0.62;0.00;0.00;0.62;2.40;2.20;;;31.30;33.10;;;;;;2260433;61;20423;-58
2023/09/13 04:40:12;0.00;0.00;0.62;0.00;0.00;0.62;3.23;2.93;;;31.30;33.10;;;;;;2257449;61;20360;-60
2023/09/13 04:43:23;0.00;0.00;0.62;0.00;0.00;0.62;2.97;2.67;;;31.30;33.10;;;;;;2260836;61;20408;-56
2023/09/13 04:46:08;0.00;0.00;0.62;0.00;0.00;0.62;3.20;2.90;;;31.30;33.80;;;;;;2260028;61;20374;-59
2023/09/13 04:48:54;0.00;0.00;0.62;0.00;0.00;0.62;3.23;2.93;;;31.30;33.10;;;;;;2260389;61;20471;-58
2023/09/13 04:51:38;0.00;0.00;0.62;0.00;0.00;0.62;3.10;2.63;;;31.30;33.10;;;;;;2260514;61;20369;-58
2023/09/13 04:54:23;0.00;0.00;0.62;0.00;0.00;0.62;2.80;2.60;;;31.30;33.10;;;;;;2259655;61;20365;-58
2023/09/13 04:57:08;0.00;0.00;0.62;0.00;0.00;0.62;3.40;3.10;;;31.30;33.20;;;;;;2260105;61;20397;-59
2023/09/13 04:59:55;0.00;0.00;0.62;0.00;0.00;0.62;4.20;2.90;;;31.30;33.20;;;;;;2260472;61;20380;-59
2023/09/13 05:02:40;0.00;0.00;0.62;0.00;0.00;0.62;2.70;2.40;;;31.30;33.20;;;;;;2260131;61;20952;-60
2023/09/13 05:05:26;0.00;0.00;0.62;0.00;0.00;0.62;3.20;2.80;;;31.30;33.20;;;;;;2260131;61;20715;-58
2023/09/13 05:08:11;0.00;0.00;0.62;0.00;0.00;0.62;3.67;3.37;;;31.20;33.10;;;;;;2260388;61;20388;-58
2023/09/13 05:10:55;0.00;0.00;0.62;0.00;0.00;0.62;3.67;2.80;;;31.20;33.10;;;;;;2260401;61;20413;-60
2023/09/13 05:13:40;0.00;0.00;0.62;0.00;0.00;0.62;3.80;3.10;;;31.20;33.20;;;;;;2260661;61;20369;-58
2023/09/13 05:16:24;0.00;0.00;0.62;0.00;0.00;0.62;3.37;2.70;;;31.20;33.80;;;;;;2260528;61;20416;-61
2023/09/13 05:19:09;0.00;0.00;0.62;0.00;0.00;0.62;3.20;2.67;;;31.20;33.20;;;;;;2260773;61;20376;-62
2023/09/13 05:21:55;0.00;0.00;0.62;0.00;0.00;0.62;3.40;2.90;;;31.20;33.20;;;;;;2260535;61;20368;-60
2023/09/13 05:24:39;0.00;0.00;0.62;0.00;0.00;0.62;2.63;2.43;;;31.20;33.20;;;;;;2260078;61;20422;-60
2023/09/13 05:27:24;0.00;0.00;0.62;0.00;0.00;0.62;4.87;2.80;;;31.20;33.20;;;;;;2260679;61;20408;-60
2023/09/13 05:30:10;0.00;0.00;0.62;0.00;0.00;0.62;3.23;2.93;;;31.20;33.20;;;;;;2260346;61;20393;-61
2023/09/13 05:32:54;0.00;0.00;0.62;0.00;0.00;0.62;3.10;2.80;;;31.20;33.20;;;;;;2260537;61;20818;-60
2023/09/13 05:35:39;0.00;0.00;0.62;0.00;0.00;0.62;3.50;2.90;;;31.20;33.20;;;;;;2260354;61;20765;-60
2023/09/13 05:38:25;0.00;0.00;0.62;0.00;0.00;0.62;3.07;2.70;;;31.20;33.20;;;;;;2261009;61;20445;-60
2023/09/13 05:41:13;0.00;0.00;0.62;0.00;0.00;0.62;3.20;2.90;;;31.20;33.20;;;;;;2497102;53;20399;-58
2023/09/13 05:43:58;0.00;0.00;0.62;0.00;0.00;0.62;3.43;3.13;;;31.20;33.20;;;;;;2260451;61;20376;-57
2023/09/13 05:46:42;0.00;0.00;0.62;0.00;0.00;0.62;2.87;2.67;;;31.20;33.20;;;;;;2260340;61;20817;-57
2023/09/13 05:49:27;0.00;0.00;0.62;0.00;0.00;0.62;4.07;2.90;;;31.20;33.20;;;;;;2260674;61;20405;-57
2023/09/13 05:52:12;0.00;0.00;0.62;0.00;0.00;0.62;3.47;3.00;;;31.20;33.30;;;;;;2260001;61;20400;-58
2023/09/13 05:54:58;0.00;0.00;0.62;0.00;0.00;0.62;3.10;2.50;;;31.20;33.20;;;;;;2260286;61;20365;-54
2023/09/13 05:57:43;0.00;0.00;0.62;0.00;0.00;0.62;2.90;2.60;;;31.20;33.20;;;;;;2260593;61;20415;-58
2023/09/13 06:00:27;0.00;0.00;0.62;0.00;0.00;0.62;2.90;2.60;;;31.20;33.20;;;;;;2260441;61;20885;-59
2023/09/13 06:03:12;0.00;0.00;0.62;0.00;0.00;0.62;3.17;2.87;;;31.20;33.20;;;;;;2260550;61;20420;-59
2023/09/13 06:05:57;0.00;0.00;0.62;0.00;0.00;0.62;2.80;2.50;;;31.20;33.20;;;;;;2260284;61;20369;-59
2023/09/13 06:08:41;0.00;0.00;0.62;0.00;0.00;0.62;3.03;2.50;;;31.20;33.20;;;;;;2260278;61;20621;-59
2023/09/13 06:11:27;0.00;0.00;0.62;0.00;0.00;0.62;3.13;2.83;;;31.20;33.20;;;;;;2260587;61;20893;-59
2023/09/13 06:14:11;0.00;0.00;0.62;0.00;0.00;0.62;2.83;2.33;;;31.20;33.30;;;;;;2260210;61;20373;-59
2023/09/13 06:16:56;0.00;0.00;0.62;0.00;0.00;0.62;2.70;2.23;;;31.20;33.20;;;;;;2260173;61;20393;-58
2023/09/13 06:19:41;0.00;0.00;0.62;0.00;0.00;0.62;3.47;3.17;;;31.20;33.20;;;;;;2260508;61;20389;-64
2023/09/13 06:22:25;0.00;0.00;0.62;0.00;0.00;0.62;3.10;2.70;;;31.20;33.20;;;;;;2259764;61;20431;-60
2023/09/13 06:25:09;0.00;0.00;0.62;0.00;0.00;0.62;3.30;2.97;;;31.20;33.30;;;;;;2260160;61;20411;-57
2023/09/13 06:27:55;0.00;0.00;0.62;0.00;0.00;0.62;3.07;2.77;;;31.20;33.20;;;;;;2260636;61;20384;-59
2023/09/13 06:30:40;0.00;0.00;0.62;0.00;0.00;0.62;2.93;2.50;;;31.20;33.20;;;;;;2260100;61;20428;-60
2023/09/13 06:33:25;0.00;0.00;0.62;0.00;0.00;0.62;2.80;2.30;;;31.20;33.20;;;;;;2260602;61;20420;-60
2023/09/13 06:36:10;0.00;0.00;0.62;0.00;0.00;0.62;2.77;2.47;;;31.20;33.30;;;;;;2260199;61;20368;-59
2023/09/13 06:38:55;0.00;0.00;0.62;0.00;0.00;0.62;2.53;2.27;;;31.20;33.30;;;;;;2260241;61;20369;-55
2023/09/13 06:41:40;0.00;0.00;0.62;0.00;0.00;0.62;2.53;2.33;;;31.20;33.30;;;;;;2260459;61;20913;-59
2023/09/13 06:44:26;0.00;0.00;0.62;0.00;0.00;0.62;2.97;2.67;;;31.20;33.30;;;;;;2260010;61;20364;-57
2023/09/13 06:47:10;0.00;0.00;0.62;0.00;0.00;0.62;2.90;2.20;;;31.20;33.30;;;;;;2260438;61;20435;-59
2023/09/13 06:49:55;0.00;0.00;0.62;0.00;0.00;0.62;3.07;2.50;;;31.20;33.20;;;;;;2260458;61;20432;-57
2023/09/13 06:52:40;0.00;0.00;0.62;0.00;0.00;0.62;3.30;2.73;;;31.20;33.30;;;;;;2260017;61;20365;-64
2023/09/13 06:55:25;0.00;0.00;0.62;0.00;0.00;0.62;3.27;2.97;;;31.20;33.30;;;;;;2260089;61;20369;-59
2023/09/13 06:58:09;0.00;0.00;0.62;0.00;0.00;0.62;3.20;2.43;;;31.20;33.30;;;;;;2259970;61;20388;-57
2023/09/13 07:00:55;0.00;0.00;0.62;0.00;0.00;0.62;3.03;2.47;;;31.20;33.30;;;;;;2260503;61;20754;-59
2023/09/13 07:03:40;0.00;0.00;0.62;0.00;0.00;0.62;3.07;2.47;;;31.20;33.30;;;;;;2260548;61;20369;-58
2023/09/13 07:06:24;0.00;0.00;0.62;0.00;0.00;0.62;3.77;2.60;;;31.20;33.30;;;;;;2260082;61;20365;-58
2023/09/13 07:09:09;0.00;0.00;0.62;0.00;0.00;0.62;3.00;2.63;;;31.20;33.30;;;;;;2260356;61;20365;-59
2023/09/13 07:11:54;0.00;0.00;0.62;0.00;0.00;0.62;2.47;2.27;;;31.20;33.30;;;;;;2260455;61;20391;-59
2023/09/13 07:14:38;0.00;0.00;0.62;0.00;0.00;0.62;2.67;2.43;;;31.20;33.30;;;;;;2259829;61;20416;-59
2023/09/13 07:17:24;0.00;0.00;0.62;0.00;0.00;0.62;3.60;3.00;;;31.20;33.30;;;;;;2260679;61;20392;-59
2023/09/13 07:20:10;0.00;0.00;0.62;0.00;0.00;0.62;3.83;2.80;;;31.20;33.30;;;;;;2260330;61;20369;-59
2023/09/13 07:22:55;0.00;0.00;0.62;0.00;0.00;0.62;2.73;2.53;;;31.20;33.30;;;;;;2260137;61;20448;-58
2023/09/13 07:25:39;0.00;0.00;0.62;0.00;0.00;0.62;2.80;2.23;;;31.20;33.30;;;;;;2259934;61;20410;-54
2023/09/13 07:28:24;0.00;0.00;0.62;0.00;0.00;0.62;2.97;2.53;;;31.20;33.30;;;;;;2260041;61;20408;-57
2023/09/13 07:31:09;0.00;0.00;0.62;0.00;0.00;0.62;2.50;2.30;;;31.20;33.30;;;;;;2260365;61;20397;-58
2023/09/13 07:33:55;0.00;0.00;0.62;0.00;0.00;0.62;3.43;2.80;;;31.20;33.30;;;;;;2260250;61;20372;-59
2023/09/13 07:36:40;0.00;0.00;0.62;0.00;0.00;0.62;3.30;3.00;;;31.20;33.30;;;;;;2259872;61;20466;-59
2023/09/13 07:39:25;0.00;0.00;0.62;0.00;0.00;0.62;3.10;2.80;;;31.20;33.40;;;;;;2260352;61;20387;-59
2023/09/13 07:42:11;0.00;0.00;0.62;0.00;0.00;0.62;3.07;2.50;;;31.20;33.40;;;;;;2260374;61;20361;-58
2023/09/13 07:44:55;0.00;0.00;0.62;0.00;0.00;0.62;2.60;2.40;;;31.20;33.40;;;;;;2259880;61;20913;-58
2023/09/13 07:47:40;0.00;0.00;0.62;0.00;0.00;0.62;2.80;2.53;;;31.20;33.40;;;;;;2261137;61;20447;-59
2023/09/13 07:50:30;0.00;0.00;0.62;0.00;0.00;0.62;3.10;2.70;;;31.10;33.30;;;;;;2261017;61;20955;-59
2023/09/13 07:53:14;0.00;0.00;0.62;0.00;0.00;0.62;3.20;2.77;;;31.10;33.40;;;;;;2260804;61;20361;-58
2023/09/13 07:55:59;0.00;0.00;0.62;0.00;0.00;0.62;3.70;3.30;;;31.10;33.30;;;;;;2260711;61;20443;-58
2023/09/13 07:58:44;0.00;0.00;0.62;0.00;0.00;0.62;7.33;3.10;;;31.10;33.40;;;;;;2260760;61;20419;-59
2023/09/13 08:01:29;0.00;0.00;0.62;0.00;0.00;0.62;2.90;2.60;;;31.10;33.30;;;;;;2261191;61;20388;-58
2023/09/13 08:04:13;0.00;0.00;0.62;0.00;0.00;0.62;3.00;2.70;;;31.20;33.40;;;;;;2260714;61;20384;-59
2023/09/13 08:06:59;0.00;0.00;0.62;0.00;0.00;0.62;3.67;3.27;;;31.20;33.40;;;;;;2260680;61;20913;-59
2023/09/13 08:09:44;0.00;0.00;0.62;0.00;0.00;0.62;2.93;2.63;;;31.20;33.40;;;;;;2260912;61;20376;-59
2023/09/13 08:12:29;0.00;0.00;0.62;0.00;0.00;0.62;3.40;3.10;;;31.20;33.40;;;;;;2261114;61;20404;-59
2023/09/13 08:15:14;0.00;0.00;0.62;0.00;0.00;0.62;3.87;2.60;;;31.20;33.40;;;;;;2260652;61;20373;-58
2023/09/13 08:17:58;0.00;0.00;0.62;0.00;0.00;0.62;3.13;2.90;;;31.20;33.40;;;;;;2260747;61;20431;-59
2023/09/13 08:20:43;0.00;0.00;0.62;0.00;0.00;0.62;3.00;2.47;;;31.20;33.40;;;;;;2260489;61;20904;-58
2023/09/13 08:23:29;0.00;0.00;0.62;0.00;0.00;0.62;3.10;2.80;;;31.20;33.40;;;;;;2260892;61;20400;-62
2023/09/13 08:26:13;0.00;0.00;0.62;0.00;0.00;0.62;3.00;2.60;;;31.20;33.40;;;;;;2260686;61;20415;-57
2023/09/13 08:28:58;0.00;0.00;0.62;0.00;0.00;0.62;3.10;2.80;;;31.20;33.40;;;;;;2260188;61;20399;-56
2023/09/13 08:31:42;0.00;0.00;0.62;0.00;0.00;0.62;3.43;3.13;;;31.20;33.40;;;;;;2260845;61;20360;-59
2023/09/13 08:34:27;0.00;0.00;0.62;0.00;0.00;0.62;3.27;2.83;;;31.20;33.40;;;;;;2260591;61;20403;-59
2023/09/13 08:37:12;0.00;0.00;0.62;0.00;0.00;0.62;2.77;2.47;;;31.20;33.40;;;;;;2260539;61;20473;-59
2023/09/13 08:39:58;0.00;0.00;0.62;0.00;0.00;0.62;2.70;2.50;;;31.20;33.50;;;;;;2260944;61;20765;-59
2023/09/13 08:42:44;0.00;0.00;0.62;0.00;0.00;0.62;3.90;3.10;;;31.20;33.50;;;;;;2260738;61;20404;-56
2023/09/13 08:45:30;0.00;0.00;0.62;0.00;0.00;0.62;2.90;2.70;;;31.20;33.50;;;;;;2260464;61;20400;-59
2023/09/13 08:48:17;0.00;0.00;0.62;0.00;0.00;0.62;2.97;2.40;;;31.20;33.50;;;;;;2260804;61;20388;-54
2023/09/13 08:51:03;0.00;0.00;0.62;0.00;0.00;0.62;3.27;2.97;;;31.20;33.50;;;;;;2259887;61;20389;-59
2023/09/13 08:53:51;0.00;0.00;0.62;0.00;0.00;0.62;3.20;2.90;;;31.20;33.50;;;;;;2260687;61;20947;-59
2023/09/13 08:56:42;0.00;0.00;0.62;0.00;0.00;0.62;2.80;2.60;;;31.20;33.50;;;;;;2260543;61;20406;-58
2023/09/13 08:59:27;0.00;0.00;0.62;0.00;0.00;0.62;2.60;2.40;;;31.20;33.50;;;;;;2260660;61;20361;-59
2023/09/13 09:02:18;0.00;0.00;0.62;0.00;0.00;0.62;2.83;2.63;;;31.20;33.40;;;;;;2260770;61;20449;-58
2023/09/13 09:05:06;0.00;0.00;0.62;0.00;0.00;0.62;3.23;2.80;;;31.20;33.50;;;;;;2260046;61;20373;-58
2023/09/13 09:07:52;0.00;0.00;0.62;0.00;0.00;0.62;3.00;2.60;;;31.20;33.50;;;;;;2261042;61;20392;-60
2023/09/13 09:10:36;0.00;0.00;0.62;0.00;0.00;0.62;3.07;2.77;;;31.20;33.50;;;;;;2260721;61;20427;-58
2023/09/13 09:13:25;0.00;0.00;0.62;0.00;0.00;0.62;2.93;2.50;;;31.20;33.50;;;;;;2260481;61;20460;-59
2023/09/13 09:16:10;0.00;0.00;0.62;0.00;0.00;0.62;2.80;2.57;;;31.20;33.40;;;;;;2260573;61;20488;-58
2023/09/13 09:19:00;0.00;0.00;0.62;0.00;0.00;0.62;3.13;2.83;;;31.20;33.50;;;;;;2260776;61;20453;-58
2023/09/13 09:21:47;0.00;0.00;0.62;0.00;0.00;0.62;2.90;2.60;;;31.20;33.40;;;;;;2260735;61;20357;-59
2023/09/13 09:24:32;0.00;0.00;0.62;0.00;0.00;0.62;2.77;2.53;;;31.20;33.40;;;;;;2260466;61;20361;-60
2023/09/13 09:27:17;0.00;0.00;0.62;0.00;0.00;0.62;3.20;2.90;;;31.20;33.50;;;;;;2260444;61;20404;-57
2023/09/13 09:30:05;0.00;0.00;0.62;0.00;0.00;0.62;3.27;2.97;;;31.30;33.50;;;;;;2260818;61;20389;-59
2023/09/13 09:32:50;0.00;0.00;0.62;0.00;0.00;0.62;2.80;2.60;;;31.30;33.50;;;;;;2260900;61;20387;-59
2023/09/13 09:35:36;0.00;0.00;0.62;0.00;0.00;0.62;2.67;2.43;;;31.30;33.50;;;;;;2260059;61;20408;-59
2023/09/13 09:38:22;0.00;0.00;0.62;0.00;0.00;0.62;3.03;2.73;;;31.30;33.50;;;;;;2260711;61;20380;-57
2023/09/13 09:41:06;0.00;0.00;0.62;0.00;0.00;0.62;2.87;2.60;;;31.30;33.50;;;;;;2260834;61;20372;-59
2023/09/13 09:43:54;0.00;0.00;0.62;0.00;0.00;0.62;3.20;2.90;;;31.20;33.40;;;;;;2260498;61;20361;-59
2023/09/13 09:46:40;0.00;0.00;0.62;0.00;0.00;0.62;3.20;2.73;;;31.30;33.50;;;;;;2263974;48;20376;-59
2023/09/13 09:49:25;0.00;0.00;0.62;0.00;0.00;0.62;2.50;2.30;;;31.30;33.50;;;;;;2260402;61;20361;-58
2023/09/13 09:52:10;0.00;0.00;0.62;0.00;0.00;0.62;2.90;2.60;;;31.30;33.50;;;;;;2260916;61;20365;-58
2023/09/13 09:54:55;0.00;0.00;0.62;0.00;0.00;0.62;2.90;2.50;;;31.30;33.50;;;;;;2260400;61;20365;-59
2023/09/13 09:57:46;0.00;0.00;0.62;0.00;0.00;0.62;2.37;2.10;;;31.30;33.50;;;;;;2262791;61;20380;-58
2023/09/13 10:00:30;0.00;0.00;0.62;0.00;0.00;0.62;2.53;2.30;;;31.30;33.50;;;;;;2264909;61;20395;-58
2023/09/13 10:03:17;0.00;0.00;0.62;0.00;0.00;0.62;3.00;2.00;;;31.30;33.50;;;;;;2264285;61;20364;-59
2023/09/13 10:06:09;0.00;0.00;0.62;0.00;0.00;0.62;2.47;1.83;;;31.30;33.50;;;;;;2263956;61;20368;-56
2023/09/13 10:08:53;0.00;0.00;0.62;0.00;0.00;0.62;2.43;1.97;;;31.30;33.50;;;;;;2264447;61;20410;-59
2023/09/13 10:11:39;0.00;0.00;0.62;0.00;0.00;0.62;2.67;1.70;;;31.30;33.50;;;;;;2264277;61;20473;-59
2023/09/13 10:14:27;0.00;0.00;0.62;0.00;0.00;0.62;4.73;1.83;;;31.30;33.50;;;;;;2264256;61;20897;-56
2023/09/13 10:17:12;0.00;0.00;0.62;0.00;0.00;0.62;3.13;1.80;;;31.30;33.50;;;;;;2264677;61;20797;-59
2023/09/13 10:19:58;0.00;0.00;0.62;0.00;0.00;0.62;2.07;1.57;;;31.30;33.50;;;;;;2264437;61;20395;-59
2023/09/13 10:22:47;0.00;0.00;0.62;0.00;0.00;0.62;3.00;1.87;;;31.30;33.50;;;;;;2264684;61;20452;-59
2023/09/13 10:25:35;0.00;0.00;0.62;0.00;0.00;0.62;1.53;1.40;;;31.30;33.50;;;;;;2264406;61;20359;-58
2023/09/13 10:28:23;0.00;0.00;0.62;0.00;0.00;0.62;2.10;1.50;;;31.30;33.40;;;;;;2264457;61;20403;-59
2023/09/13 10:31:17;0.00;0.00;0.62;0.00;0.00;0.62;1.80;1.30;;;31.30;33.40;;;;;;2264661;61;20666;-59
2023/09/13 10:34:10;0.00;0.00;0.62;0.00;0.00;0.62;1.90;1.50;;;31.30;33.40;;;;;;2264370;61;20452;-61
2023/09/13 10:37:06;0.00;0.00;0.62;0.00;0.00;0.62;1.87;1.60;;;31.30;33.50;;;;;;2264804;61;20883;-58
2023/09/13 10:39:56;0.00;0.00;0.62;0.00;0.00;0.62;2.20;1.80;;;31.30;33.50;;;;;;2264561;61;20364;-58
2023/09/13 10:42:43;0.00;0.00;0.62;0.00;0.00;0.62;1.87;1.20;;;31.20;33.40;;;;;;2264315;61;20422;-59
2023/09/13 10:45:28;0.00;0.00;0.62;0.00;0.00;0.62;2.53;1.60;;;31.20;33.30;;;;;;2264202;61;20415;-59
2023/09/13 10:48:15;0.00;0.00;0.62;0.00;0.00;0.62;1.90;1.70;;;31.30;33.40;;;;;;2264236;61;20395;-58
2023/09/13 10:51:01;0.00;0.00;0.62;0.00;0.00;0.62;1.70;1.43;;;31.20;33.40;;;;;;2264636;61;20507;-57
2023/09/13 10:53:47;0.00;0.00;0.62;0.00;0.00;0.62;1.90;1.50;;;31.20;33.30;;;;;;2264417;61;20701;-59
2023/09/13 10:56:32;0.00;0.00;0.62;0.00;0.00;0.62;2.27;1.40;;;31.20;33.30;;;;;;2263469;61;20411;-59